Tiempo atmosférico en la estación meteorológica de Benabarre, Huesca (765 m.)



Fecha
DESCASC
Temp. máxima en grados centígrados (hora)
DESCASC
Temp. mínima en grados centígrados (hora)
DESCASC
Temp. media en grados centígrados
DESCASC
Racha de viento máxima en m/sg (hora)
DESCASC
Velocidad máxima media en intervalos de 10 minutos(hora)
DESCASC
Precipitaciones diarias en mm
DESCASC
Precipitaciones de 00:00 a 06:00 en mm
DESCASC
Precipitaciones de 06:00 a 12:00 en mm
DESCASC
Precipitaciones de 12:00 a 18:00 en mm
DESCASC
Precipitaciones de 18:00 a 24:00 en mm
DESCASC
22-04-2019 15.7 (15:40) 6.7 (05:50) 11.2 5 (17:50) 3.61 (10:00) 1.4 0 1.4 0 0
21-04-2019 12.4 (16:20) 6.7 (06:40) 9.5 8.33 (03:10) 6.11 (03:10) 4.6 4 0.6 0 0
20-04-2019 19 (13:40) 5.6 (06:40) 12.3 8.61 (14:50) 5.56 (15:30) 0.4 0 0 0 0.4
19-04-2019 18.1 (16:30) 8.2 (23:59) 13.2 11.67 (00:20) 7.78 (11:40) 0 0 0 0 0
18-04-2019 16.4 (14:20) 7.1 (00:00) 11.7 15 (13:50) 11.11 (14:00) 0 0 0 0 0
17-04-2019 19.3 (15:50) 4.5 (00:00) 11.9 9.72 (23:00) 6.39 (23:10) 0 0 0 0 0
16-04-2019 16.9 (16:20) 6.6 (00:00) 11.7 5.83 (18:50) 3.89 (00:30) 1.4 1.4 0 0 0
15-04-2019 17.3 (14:30) 7.4 (00:00) 12.3 11.67 (21:30) 7.78 (21:30) 5.4 0 0 0 5.4
14-04-2019 22.2 (17:30) 4.3 (00:00) 13.3 10 (14:10) 6.11 (17:40) 0 0 0 0 0
13-04-2019 18.2 (17:30) 0.3 (00:00) 9.3 9.17 (18:00) 5.56 (17:30) 0 0 0 0 0
12-04-2019 17.2 (17:20) 2.3 (00:00) 9.8 9.17 (18:30) 5.83 (18:30) 0 0 0 0 0
11-04-2019 16.6 (15:30) 2.1 (00:00) 9.4 8.61 (16:50) 5.83 (16:50) 0 0 0 0 0
10-04-2019 13.9 (13:00) 2.1 (00:00) 8 6.39 (17:40) 3.61 (12:40) 0.2 0 0 0.2 0
09-04-2019 15.1 (16:30) 5.9 (00:00) 10.5 12.78 (16:50) 8.33 (18:50) 0.4 0 0 0 0.4
08-04-2019 14.7 (18:30) 2 (00:00) 8.3 8.33 (15:10) 4.72 (15:10) 0 0 0 0 0
07-04-2019 13.6 (16:10) 1.2 (00:00) 7.4 8.61 (16:30) 5.28 (16:40) 0 0 0 0 0
06-04-2019 9 (15:30) 2.3 (00:00) 5.6 8.33 (07:30) 5.56 (21:40) 17.2 9 4 0.6 3.6
05-04-2019 11.2 (15:20) 2.1 (00:00) 6.6 9.17 (12:10) 5.83 (12:00) 10.8 0 1.4 0 9.4
04-04-2019 11 (16:50) -2.7 (-00:0) 4.1 10.83 (03:20) 6.67 (00:10) 0 0 0 0 0
03-04-2019 9.8 (12:30) 3.9 (00:00) 6.9 11.11 (20:30) 7.22 (20:30) 0.2 0.2 0 0 0
02-04-2019 16.4 (14:10) 5.9 (00:00) 11.1 11.39 (17:20) 6.67 (17:20) 2 0 0 2 0
01-04-2019 14.3 (15:10) 6.6 (00:00) 10.5 6.39 (16:10) 4.44 (16:10) 0.4 0 0.4 0 0
31-03-2019 13.3 (17:10) 1.9 (00:00) 7.6 5 (10:20) 3.33 (04:40) 0 0 0 0 0
30-03-2019 15.3 (16:20) 0.9 (00:00) 8.1 10 (13:50) 3.89 (16:30) 0 0 0 0 0
29-03-2019 14.8 (15:40) 2.1 (00:00) 8.5 8.06 (18:20) 5 (18:30) 0 0 0 0 0
28-03-2019 15 (14:20) 1 (00:00) 8 7.22 (14:40) 3.89 (12:10) 0 0 0 0 0
27-03-2019 16.1 (16:50) -0.2 (00:00) 8 7.22 (14:10) 4.17 (14:10) 0 0 0 0 0
26-03-2019 17.5 (16:40) 2.9 (00:00) 10.2 8.89 (15:20) 6.11 (21:20) 0 0 0 0 0
25-03-2019 18 (16:10) 5.1 (00:00) 11.5 8.61 (15:40) 4.72 (18:00) 0 0 0 0 0

Gráficas

Temp. máximas Temp. mínimas Temp. medias Precipitaciones Rachas de viento máximas Velocidades máximas media en intervalos de 10 minutos

Datos horarios

Fecha y hora oficial Temperatura (ºC) Velocidad del viento (km/h) Dirección del viento Racha (km/h) Dirección de racha Precipitación (mm) Presión (hPa) Tendencia (hPa) Humedad (%)
2019-04-23 23:00:00 7.9 4 Oeste 14 Sudeste 0 -- -- 91
2019-04-23 22:00:00 7.9 9 Norte 27 Noroeste 0 -- -- 92
2019-04-23 21:00:00 8.2 19 Norte 24 Norte 2.2 -- -- 97
2019-04-23 20:00:00 8.5 19 Noroeste 39 Noroeste 6.2 -- -- 96
2019-04-23 19:00:00 11.4 6 Oeste 26 Noroeste 2 -- -- 87
2019-04-23 18:00:00 14.5 7 Sudoeste 21 Sudeste 0 -- -- 62
2019-04-23 17:00:00 15.2 12 Sudeste 23 Este 0 -- -- 61
2019-04-23 16:00:00 14.8 6 Nordeste 18 Este 0 -- -- 71
2019-04-23 15:00:00 13.9 7 Este 18 Este 0 -- -- 75
2019-04-23 14:00:00 14.4 7 Este 22 Sudeste 0 -- -- 79
2019-04-23 13:00:00 11.6 7 Sudeste 12 Sudeste 0 -- -- 87
2019-04-23 12:00:00 10.8 6 Este 10 Este 0.2 -- -- 92
2019-04-23 11:00:00 10.1 6 Sudeste 9 Noroeste 0.6 -- -- 92
2019-04-23 10:00:00 10.2 6 Oeste 8 Oeste 0 -- -- 87
2019-04-23 09:00:00 9.7 7 Oeste 10 Oeste 0 -- -- 89
2019-04-23 08:00:00 9.1 4 Norte 6 Norte 0 -- -- 92
2019-04-23 07:00:00 9.1 2 Sur 6 Noroeste 0 -- -- 89
2019-04-23 06:00:00 9 2 Norte 10 Noroeste 0 -- -- 90
2019-04-23 05:00:00 9.1 0 Calma 11 Noroeste 0 -- -- 90
2019-04-23 04:00:00 9.3 3 Noroeste 9 Noroeste 0 -- -- 89
2019-04-23 03:00:00 9.5 6 Noroeste 18 Noroeste 0 -- -- 87
2019-04-23 02:00:00 10 12 Noroeste 17 Noroeste 0 -- -- 84
2019-04-23 01:00:00 10 5 Norte 9 Noroeste 0 -- -- 85
2019-04-23 00:00:00 10.3 2 Sudeste 12 Noroeste 0 -- -- 84
2019-04-22 23:00:00 10.6 10 Noroeste 13 Noroeste 0 -- -- 82
2019-04-22 22:00:00 11.3 6 Oeste 10 Oeste 0 -- -- 75
2019-04-22 21:00:00 11.6 5 Sur 11 Oeste 0 -- -- 77
2019-04-22 20:00:00 12.3 9 Oeste 14 Oeste 0 -- -- 75
2019-04-22 19:00:00 12.7 8 Sur 17 Sur 0 -- -- 73
2019-04-22 18:00:00 14.3 9 Sur 18 Sur 0 -- -- 64
2019-04-22 17:00:00 15.2 9 Sudeste 15 Sudeste 0 -- -- 57
2019-04-22 16:00:00 15.6 3 Sudeste 14 Noroeste 0 -- -- 55
2019-04-22 15:00:00 14.7 9 Oeste 18 Sudoeste 0 -- -- 59
2019-04-22 14:00:00 13.2 9 Oeste 17 Noroeste 0 -- -- 71
2019-04-22 13:00:00 11.1 12 Noroeste 17 Oeste 0 -- -- 85
2019-04-22 12:00:00 10.1 5 Noroeste 15 Oeste 0 -- -- 86
2019-04-22 11:00:00 9.2 12 Noroeste 15 Noroeste 0 -- -- 90
2019-04-22 10:00:00 8.4 13 Noroeste 17 Noroeste 0.2 -- -- 92
2019-04-22 09:00:00 7.8 7 Norte 11 Norte 0.6 -- -- 93
2019-04-22 08:00:00 8.2 4 Este 15 Este 0.6 -- -- 88
2019-04-22 07:00:00 8.1 11 Nordeste 16 Nordeste 0 -- -- 83
2019-04-22 06:00:00 6.9 5 Norte 11 Norte 0 -- -- 84
2019-04-22 05:00:00 7.1 7 Norte 10 Norte 0 -- -- 90
2019-04-22 04:00:00 7.7 6 Noroeste 11 Noroeste 0 -- -- 90
2019-04-22 03:00:00 6.8 8 Noroeste 11 Noroeste 0 -- -- 92
2019-04-22 02:00:00 7.9 8 Noroeste 15 Noroeste 0 -- -- 87
2019-04-22 01:00:00 8.1 7 Noroeste 14 Oeste 0 -- -- 85
2019-04-22 00:00:00 8.5 10 Norte 12 Norte 0 -- -- 86
2019-04-21 23:00:00 9 5 Norte 9 Norte 0 -- -- 84
2019-04-21 22:00:00 9.8 7 Norte 9 Norte 0 -- -- 83
2019-04-21 21:00:00 10.5 5 Noroeste 12 Noroeste 0 -- -- 80
2019-04-21 20:00:00 11.3 8 Noroeste 11 Noroeste 0 -- -- 74
2019-04-21 19:00:00 11.6 8 Noroeste 14 Noroeste 0 -- -- 72
2019-04-21 18:00:00 12 9 Noroeste 14 Norte 0 -- -- 72
2019-04-21 17:00:00 12.3 0 Calma 10 Oeste 0 -- -- 66
2019-04-21 16:00:00 12.2 5 Noroeste 13 Oeste 0 -- -- 71
2019-04-21 15:00:00 11.8 8 Oeste 13 Oeste 0 -- -- 75
2019-04-21 14:00:00 10.7 5 Oeste 10 Noroeste 0 -- -- 85
2019-04-21 13:00:00 9.7 5 Sudoeste 15 Oeste 0 -- -- 90
2019-04-21 12:00:00 8.5 10 Noroeste 19 Oeste 0 -- -- 91
2019-04-21 11:00:00 8.3 10 Oeste 15 Oeste 0 -- -- 90
2019-04-21 10:00:00 8.2 4 Sudoeste 18 Este 0.2 -- -- 89
2019-04-21 09:00:00 7.1 7 Este 19 Este 0.4 -- -- 91
2019-04-21 08:00:00 6.7 15 Nordeste 21 Nordeste 0 -- -- 92
2019-04-21 07:00:00 6.8 12 Este 16 Nordeste 0 -- -- 93
2019-04-21 06:00:00 6.9 7 Sudeste 13 Este 0 -- -- 93
2019-04-21 05:00:00 7.1 5 Este 13 Nordeste 0 -- -- 90
2019-04-21 04:00:00 6.9 5 Nordeste 30 Nordeste 0 -- -- 91
2019-04-21 03:00:00 7 14 Este 22 Este 1 -- -- 93
2019-04-21 02:00:00 6.9 2 Este 12 Sudeste 1.4 -- -- 94
2019-04-21 01:00:00 7.8 3 Oeste 9 Sur 1.6 -- -- 89
2019-04-21 00:00:00 8.8 4 Sudoeste 11 Sudoeste 0.4 -- -- 79
2019-04-20 23:00:00 9.2 8 Sudoeste 15 Sudoeste 0 -- -- 74
2019-04-20 22:00:00 10 9 Sur 31 Sur 0 -- -- 72
2019-04-20 21:00:00 13 10 Sur 15 Sur 0 -- -- 49
2019-04-20 20:00:00 14 8 Sur 18 Sur 0 -- -- 49
2019-04-20 19:00:00 15.1 8 Sudeste 19 Sur 0 -- -- 47
2019-04-20 18:00:00 15.3 13 Sudeste 21 Sur 0 -- -- 47
2019-04-20 17:00:00 15.2 12 Sur 26 Sur 0 -- -- 44
2019-04-20 16:00:00 16.3 17 Sudeste 30 Sudeste 0 -- -- 41
2019-04-20 15:00:00 18.3 12 Sudeste 31 Sudeste 0 -- -- 43
2019-04-20 14:00:00 18 18 Sudeste 29 Sudeste 0 -- -- 37
2019-04-20 13:00:00 18.3 12 Sur 22 Sudeste 0 -- -- 38
2019-04-20 12:00:00 16.2 12 Oeste 19 Noroeste 0 -- -- 46
2019-04-20 11:00:00 14.8 9 Oeste 16 Oeste 0 -- -- 46
2019-04-20 10:00:00 12.7 4 Sudoeste 7 Sudoeste 0 -- -- 55
2019-04-20 09:00:00 9.1 4 Noroeste 6 Norte 0 -- -- 68
2019-04-20 08:00:00 7.2 0 Calma 12 Norte 0 -- -- 69
2019-04-20 07:00:00 5.6 5 Norte 10 Norte 0 -- -- 72
2019-04-20 06:00:00 6.1 8 Norte 11 Norte 0 -- -- 69
2019-04-20 05:00:00 6.5 9 Norte 11 Norte 0 -- -- 71
2019-04-20 04:00:00 7.1 0 Calma 11 Norte 0 -- -- 68
2019-04-20 03:00:00 8 7 Norte 10 Norte 0 -- -- 64
2019-04-20 02:00:00 9.3 7 Oeste 13 Norte 0 -- -- 52
2019-04-20 01:00:00 7.8 12 Norte 15 Norte 0 -- -- 62
2019-04-20 00:00:00 8.2 9 Norte 12 Norte 0 -- -- 62
2019-04-19 23:00:00 9.3 3 Norte 10 Norte 0 -- -- 58
2019-04-19 22:00:00 12.8 6 Sudeste 16 Sudeste 0 -- -- 44
2019-04-19 21:00:00 14.4 4 Sudeste 28 Sudeste 0 -- -- 42
2019-04-19 20:00:00 15.9 15 Sudeste 34 Sudeste 0 -- -- 38
2019-04-19 19:00:00 17 11 Sudeste 24 Este 0 -- -- 40
2019-04-19 18:00:00 17.6 14 Sudeste 24 Sudeste 0 -- -- 38
2019-04-19 17:00:00 17.8 10 Sudeste 21 Sur 0 -- -- 36
2019-04-19 16:00:00 17.6 13 Sudeste 31 Sudeste 0 -- -- 39
2019-04-19 15:00:00 17.3 18 Sudeste 32 Sudeste 0 -- -- 39
2019-04-19 14:00:00 17.8 10 Sudeste 32 Este 0 -- -- 39
2019-04-19 13:00:00 17.9 22 Sudeste 34 Este 0 -- -- 36
2019-04-19 12:00:00 16 24 Este 37 Este 0 -- -- 39
2019-04-19 11:00:00 14.4 24 Este 34 Este 0 -- -- 40
2019-04-19 10:00:00 13.4 25 Este 34 Este 0 -- -- 41
2019-04-19 09:00:00 12.2 23 Este 33 Este 0 -- -- 45
2019-04-19 08:00:00 10.8 10 Sudeste 21 Este 0 -- -- 52
2019-04-19 07:00:00 10.9 16 Este 36 Este 0 -- -- 55
2019-04-19 06:00:00 11.2 22 Este 38 Este 0 -- -- 54
2019-04-19 05:00:00 11.8 20 Sudeste 32 Sudeste 0 -- -- 52
2019-04-19 04:00:00 11.7 13 Este 35 Este 0 -- -- 52
2019-04-19 03:00:00 12.2 23 Sudeste 42 Sudeste 0 -- -- 49
2019-04-19 02:00:00 12.6 26 Sudeste 40 Sudeste 0 -- -- 46
2019-04-19 01:00:00 13.2 22 Sudeste 42 Sudeste 0 -- -- 39
2019-04-19 00:00:00 13.7 21 Sudeste 42 Sudeste 0 -- -- 37
2019-04-18 23:00:00 13.9 24 Sudeste 39 Sudeste 0 -- -- 38
2019-04-18 22:00:00 13.9 21 Sudeste 34 Sudeste 0 -- -- 41
2019-04-18 21:00:00 14.2 23 Sudeste 35 Sudeste 0 -- -- 44
2019-04-18 20:00:00 14.4 13 Sudeste 30 Este 0 -- -- 49
2019-04-18 19:00:00 14.3 12 Este 28 Sudeste 0 -- -- 53
2019-04-18 18:00:00 14.9 12 Sudeste 37 Sudeste 0 -- -- 50
2019-04-18 17:00:00 15.3 22 Sudeste 42 Sudeste 0 -- -- 48
2019-04-18 16:00:00 15.8 18 Sudeste 30 Sudeste 0 -- -- 48
2019-04-18 15:00:00 16.4 18 Sudeste 46 Este 0 -- -- 50
2019-04-18 14:00:00 15.8 40 Este 54 Este 0 -- -- 53
2019-04-18 13:00:00 13.6 36 Este 49 Este 0 -- -- 59
2019-04-18 12:00:00 13.4 21 Este 35 Este 0 -- -- 61
2019-04-18 11:00:00 11.5 13 Este 21 Este 0 -- -- 73
2019-04-18 10:00:00 12.5 12 Este 18 Este 0 -- -- 68
2019-04-18 09:00:00 9.7 4 Sudeste 17 Este 0 -- -- 80
2019-04-18 08:00:00 9.5 14 Este 21 Este 0 -- -- 77
2019-04-18 07:00:00 7.8 8 Este 14 Nordeste 0 -- -- 89
2019-04-18 06:00:00 7.9 6 Nordeste 13 Este 0 -- -- 85
2019-04-18 05:00:00 8.2 9 Este 15 Este 0 -- -- 87
2019-04-18 04:00:00 8.3 12 Este 16 Este 0 -- -- 89
2019-04-18 03:00:00 9.7 9 Este 18 Este 0 -- -- 84
2019-04-18 02:00:00 9.8 3 Noroeste 14 Este 0 -- -- 83
2019-04-18 01:00:00 10.3 15 Este 23 Este 0 -- -- 81
2019-04-18 00:00:00 10.7 13 Sudeste 34 Sudeste 0 -- -- 76
2019-04-17 23:00:00 11.6 22 Sudeste 35 Sudeste 0 -- -- 74
2019-04-17 22:00:00 12.2 21 Sudeste 30 Sudeste 0 -- -- 71
2019-04-17 21:00:00 13.4 17 Sudeste 28 Sudeste 0 -- -- 67
2019-04-17 20:00:00 15.1 13 Sudeste 25 Sudeste 0 -- -- 63
2019-04-17 19:00:00 16.1 14 Sudeste 32 Sudeste 0 -- -- 60
2019-04-17 18:00:00 17.5 17 Sur 34 Sudeste 0 -- -- 55
2019-04-17 17:00:00 18.6 17 Sur 29 Este 0 -- -- 50
2019-04-17 16:00:00 19.1 14 Sudeste 28 Este 0 -- -- 48
2019-04-17 15:00:00 18.5 15 Sudeste 26 Este 0 -- -- 48
2019-04-17 14:00:00 16.9 14 Sudeste 27 Este 0 -- -- 52
2019-04-17 13:00:00 16 15 Sudeste 28 Sudeste 0 -- -- 54
2019-04-17 12:00:00 15.5 13 Sudeste 25 Este 0 -- -- 57
2019-04-17 11:00:00 14.3 10 Sudeste 18 Este 0 -- -- 58
2019-04-17 10:00:00 12.2 11 Este 24 Este 0 -- -- 69
2019-04-17 09:00:00 10.5 11 Este 20 Nordeste 0 -- -- 73
2019-04-17 08:00:00 6 5 Este 8 Este 0 -- -- 90
2019-04-17 07:00:00 5 6 Este 13 Nordeste 0 -- -- 91
2019-04-17 06:00:00 4.6 6 Norte 10 Norte 0 -- -- 93
2019-04-17 05:00:00 4.5 8 Norte 10 Norte 0 -- -- 92
2019-04-17 04:00:00 5 7 Norte 10 Nordeste 0 -- -- 90
2019-04-17 03:00:00 5.9 7 Nordeste 15 Nordeste 0 -- -- 88
2019-04-17 02:00:00 6.4 11 Nordeste 14 Nordeste 0 -- -- 90
2019-04-17 01:00:00 7.6 4 Este 10 Este 0 -- -- 84
2019-04-17 00:00:00 8.6 8 Este 15 Este 0 -- -- 81
2019-04-16 23:00:00 9.6 9 Este 17 Sudeste 0 -- -- 76
2019-04-16 22:00:00 11.2 7 Sudeste 19 Sur 0 -- -- 72
2019-04-16 21:00:00 12.7 7 Sudeste 18 Sudeste 0 -- -- 66
2019-04-16 20:00:00 14.2 10 Sur 21 Sur 0 -- -- 60
2019-04-16 19:00:00 15.1 10 Sur 21 Sudeste 0 -- -- 57
2019-04-16 18:00:00 15.6 13 Sudoeste 21 Sur 0 -- -- 56
2019-04-16 17:00:00 15.7 10 Sudeste 17 Sur 0 -- -- 56
2019-04-16 16:00:00 16.1 9 Sur 17 Sudeste 0 -- -- 58
2019-04-16 15:00:00 14.8 4 Oeste 13 Este 0 -- -- 63
2019-04-16 14:00:00 13.4 7 Sudeste 13 Este 0 -- -- 66
2019-04-16 13:00:00 13.4 9 Este 18 Este 0 -- -- 68
2019-04-16 12:00:00 12.6 4 Sudeste 14 Sudeste 0 -- -- 73
2019-04-16 11:00:00 10.3 5 Noroeste 11 Norte 0 -- -- 78
2019-04-16 10:00:00 9.7 5 Sudoeste 10 Sudoeste 0 -- -- 77
2019-04-16 09:00:00 7.6 5 Norte 11 Oeste 0 -- -- 88
2019-04-16 08:00:00 7.5 4 Noroeste 8 Noroeste 0 -- -- 94
2019-04-16 07:00:00 7.3 0 Calma 7 Sudeste 0 -- -- 96
2019-04-16 06:00:00 7.3 3 Norte 6 Oeste 0 -- -- 95
2019-04-16 05:00:00 7.3 0 Calma 8 Noroeste 0 -- -- 97
2019-04-16 04:00:00 6.7 5 Norte 9 Norte 0 -- -- 96
2019-04-16 03:00:00 6.8 7 Oeste 18 Oeste 0.2 -- -- 95
2019-04-16 02:00:00 6.6 8 Este 15 Este 0 -- -- 94
2019-04-16 01:00:00 7 12 Nordeste 20 Este 1.2 -- -- 92
2019-04-16 00:00:00 7.7 14 Noroeste 31 Oeste 3.8 -- -- 88
2019-04-15 23:00:00 8.3 22 Este 33 Este 0.6 -- -- 81
2019-04-15 22:00:00 9.5 14 Noroeste 42 Este 1 -- -- 77
2019-04-15 21:00:00 11.3 19 Sudeste 32 Sudeste 0 -- -- 57
2019-04-15 20:00:00 12.6 15 Sudeste 33 Sur 0 -- -- 56
2019-04-15 19:00:00 14.2 15 Sudeste 36 Sudeste 0 -- -- 54
2019-04-15 18:00:00 15.5 17 Sudeste 32 Sudeste 0 -- -- 56
2019-04-15 17:00:00 16.5 22 Sudeste 36 Sudeste 0 -- -- 56
2019-04-15 16:00:00 16.8 18 Sur 30 Sudeste 0 -- -- 55
2019-04-15 15:00:00 17.2 10 Sudeste 30 Este 0 -- -- 56
2019-04-15 14:00:00 16.7 15 Sudeste 23 Sur 0 -- -- 58
2019-04-15 13:00:00 16 13 Este 24 Este 0 -- -- 59
2019-04-15 12:00:00 15.5 8 Sudeste 20 Sudeste 0 -- -- 65
2019-04-15 11:00:00 14.8 11 Este 19 Sudeste 0 -- -- 67
2019-04-15 10:00:00 12 8 Sudeste 13 Sudeste 0 -- -- 72
2019-04-15 09:00:00 10.8 5 Este 8 Este 0 -- -- 75
2019-04-15 08:00:00 7.6 4 Este 9 Este 0 -- -- 86
2019-04-15 07:00:00 8 3 Sudeste 10 Este 0 -- -- 86
2019-04-15 06:00:00 8.5 7 Este 11 Nordeste 0 -- -- 87
2019-04-15 05:00:00 8.9 6 Este 11 Este 0 -- -- 84
2019-04-15 04:00:00 9.2 6 Este 8 Este 0 -- -- 82
2019-04-15 03:00:00 10 4 Este 11 Este 0 -- -- 76
2019-04-15 02:00:00 10.9 8 Este 12 Este 0 -- -- 72
2019-04-15 01:00:00 10.8 9 Norte 18 Norte 0 -- -- 70
2019-04-15 00:00:00 10.8 14 Norte 16 Norte 0 -- -- 70
2019-04-14 23:00:00 11.7 10 Norte 14 Norte 0 -- -- 69
2019-04-14 22:00:00 12.7 9 Norte 12 Norte 0 -- -- 66
2019-04-14 21:00:00 16.8 5 Norte 22 Este 0 -- -- 55
2019-04-14 20:00:00 19.6 11 Nordeste 31 Oeste 0 -- -- 47
2019-04-14 19:00:00 21.1 21 Oeste 34 Oeste 0 -- -- 45
2019-04-14 18:00:00 21.5 22 Oeste 35 Oeste 0 -- -- 43
2019-04-14 17:00:00 21.8 15 Oeste 27 Oeste 0 -- -- 41
2019-04-14 16:00:00 21.2 13 Oeste 31 Oeste 0 -- -- 42
2019-04-14 15:00:00 20.3 19 Oeste 36 Oeste 0 -- -- 43
2019-04-14 14:00:00 18.4 16 Oeste 35 Oeste 0 -- -- 45
2019-04-14 13:00:00 17.8 14 Oeste 23 Oeste 0 -- -- 38
2019-04-14 12:00:00 16.4 10 Oeste 19 Oeste 0 -- -- 36
2019-04-14 11:00:00 14.7 7 Sudoeste 16 Sudoeste 0 -- -- 36
2019-04-14 10:00:00 11.2 3 Sudeste 9 Sudeste 0 -- -- 42
2019-04-14 09:00:00 7.5 4 Norte 7 Norte 0 -- -- 52
2019-04-14 08:00:00 5.6 0 Calma 13 Norte 0 -- -- 54
2019-04-14 07:00:00 4.8 3 Norte 15 Norte 0 -- -- 55
2019-04-14 06:00:00 4.9 3 Este 12 Norte 0 -- -- 51
2019-04-14 05:00:00 5.2 6 Norte 15 Norte 0 -- -- 47
2019-04-14 04:00:00 5 5 Noroeste 13 Norte 0 -- -- 46
2019-04-14 03:00:00 5 10 Norte 14 Norte 0 -- -- 40
2019-04-14 02:00:00 5.1 6 Norte 10 Norte 0 -- -- 45
2019-04-14 01:00:00 9.5 12 Noroeste 17 Noroeste 0 -- -- 36
2019-04-14 00:00:00 6.9 11 Noroeste 13 Noroeste 0 -- -- 46
2019-04-13 23:00:00 7.1 9 Noroeste 13 Norte 0 -- -- 48
2019-04-13 22:00:00 8.9 9 Norte 14 Noroeste 0 -- -- 44
2019-04-13 21:00:00 14.8 8 Oeste 21 Oeste 0 -- -- 29
2019-04-13 20:00:00 17.3 10 Oeste 29 Oeste 0 -- -- 27
2019-04-13 19:00:00 17.8 17 Oeste 31 Oeste 0 -- -- 23
2019-04-13 18:00:00 18.1 20 Oeste 33 Oeste 0 -- -- 23
2019-04-13 17:00:00 17.9 17 Oeste 30 Oeste 0 -- -- 25
2019-04-13 16:00:00 17.6 19 Oeste 30 Oeste 0 -- -- 28
2019-04-13 15:00:00 16.9 14 Oeste 24 Oeste 0 -- -- 23
2019-04-13 14:00:00 16.1 10 Oeste 23 Oeste 0 -- -- 24
2019-04-13 13:00:00 15.2 14 Oeste 24 Oeste 0 -- -- 24
2019-04-13 12:00:00 13.7 11 Oeste 19 Oeste 0 -- -- 31
2019-04-13 11:00:00 11.9 9 Noroeste 15 Noroeste 0 -- -- 42
2019-04-13 10:00:00 9.4 4 Oeste 8 Sudoeste 0 -- -- 42
2019-04-13 09:00:00 6.1 4 Noroeste 13 Norte 0 -- -- 47
2019-04-13 08:00:00 1.1 9 Norte 13 Norte 0 -- -- 52
2019-04-13 07:00:00 0.3 10 Norte 13 Norte 0 -- -- 54
2019-04-13 06:00:00 1.3 9 Norte 13 Norte 0 -- -- 52
2019-04-13 05:00:00 1.7 6 Norte 12 Norte 0 -- -- 51
2019-04-13 04:00:00 2.6 5 Norte 20 Norte 0 -- -- 44
2019-04-13 03:00:00 3.8 10 Norte 21 Este 0 -- -- 47
2019-04-13 02:00:00 7.6 9 Este 21 Este 0 -- -- 35
2019-04-13 01:00:00 8.5 4 Norte 14 Este 0 -- -- 31
2019-04-13 00:00:00 9.2 8 Este 23 Este 0 -- -- 35
2019-04-12 23:00:00 10.3 11 Este 26 Este 0 -- -- 28
2019-04-12 22:00:00 11 12 Nordeste 26 Nordeste 0 -- -- 26
2019-04-12 21:00:00 11.4 5 Norte 17 Oeste 0 -- -- 50
2019-04-12 20:00:00 15.3 12 Oeste 27 Oeste 0 -- -- 39
2019-04-12 19:00:00 16.4 18 Oeste 33 Oeste 0 -- -- 35
2019-04-12 18:00:00 17.1 19 Oeste 31 Oeste 0 -- -- 31
2019-04-12 17:00:00 17 17 Oeste 29 Oeste 0 -- -- 29
2019-04-12 16:00:00 16.6 19 Oeste 28 Oeste 0 -- -- 30
2019-04-12 15:00:00 15.8 15 Oeste 30 Oeste 0 -- -- 31
2019-04-12 14:00:00 14.8 17 Oeste 28 Oeste 0 -- -- 31
2019-04-12 13:00:00 13.9 14 Oeste 27 Oeste 0 -- -- 32
2019-04-12 12:00:00 12.9 12 Oeste 20 Oeste 0 -- -- 40
2019-04-12 11:00:00 11.5 12 Oeste 17 Oeste 0 -- -- 46
2019-04-12 10:00:00 10.1 6 Oeste 12 Noroeste 0 -- -- 51
2019-04-12 09:00:00 7.5 4 Noroeste 15 Norte 0 -- -- 64
2019-04-12 08:00:00 2.5 14 Norte 18 Norte 0 -- -- 77
2019-04-12 07:00:00 2.6 8 Norte 16 Norte 0 -- -- 76
2019-04-12 06:00:00 2.6 9 Norte 12 Noroeste 0 -- -- 78
2019-04-12 05:00:00 4.2 8 Noroeste 15 Noroeste 0 -- -- 73
2019-04-12 04:00:00 3.2 8 Norte 13 Norte 0 -- -- 77
2019-04-12 03:00:00 3.3 9 Norte 14 Noroeste 0 -- -- 77
2019-04-12 02:00:00 4 9 Norte 13 Norte 0 -- -- 72
2019-04-12 01:00:00 4.8 8 Norte 16 Norte 0 -- -- 69
2019-04-12 00:00:00 7.4 5 Noroeste 13 Norte 0 -- -- 59
2019-04-11 23:00:00 7.1 4 Norte 13 Norte 0 -- -- 60
2019-04-11 22:00:00 10.1 6 Norte 14 Oeste 0 -- -- 50
2019-04-11 21:00:00 11 6 Noroeste 18 Oeste 0 -- -- 48
2019-04-11 20:00:00 12 10 Noroeste 25 Norte 0 -- -- 42
2019-04-11 19:00:00 12.8 15 Norte 26 Norte 0 -- -- 40
2019-04-11 18:00:00 13.7 13 Norte 26 Norte 0 -- -- 36
2019-04-11 17:00:00 14.6 17 Norte 31 Norte 0 -- -- 32
2019-04-11 16:00:00 15.4 18 Norte 31 Sudeste 0 -- -- 27
2019-04-11 15:00:00 15 14 Oeste 28 Oeste 0 -- -- 28
2019-04-11 14:00:00 14.6 13 Oeste 27 Oeste 0 -- -- 31
2019-04-11 13:00:00 13.5 17 Oeste 30 Sudoeste 0 -- -- 34
2019-04-11 12:00:00 11.7 15 Oeste 21 Oeste 0 -- -- 39
2019-04-11 11:00:00 9.7 13 Oeste 19 Oeste 0 -- -- 49
2019-04-11 10:00:00 8.5 9 Oeste 15 Sudoeste 0 -- -- 57
2019-04-11 09:00:00 6.7 9 Norte 16 Norte 0 -- -- 59
2019-04-11 08:00:00 2.1 10 Norte 14 Norte 0 -- -- 76
2019-04-11 07:00:00 2.3 10 Norte 15 Norte 0 -- -- 76
2019-04-11 06:00:00 3 8 Noroeste 12 Norte 0 -- -- 75
2019-04-11 05:00:00 2.8 8 Norte 13 Norte 0 -- -- 76
2019-04-11 04:00:00 3.8 8 Norte 21 Noroeste 0 -- -- 72
2019-04-11 03:00:00 5.8 13 Noroeste 21 Noroeste 0 -- -- 62
2019-04-11 02:00:00 4 12 Norte 17 Norte 0 -- -- 69
2019-04-11 01:00:00 4.7 8 Norte 14 Noroeste 0 -- -- 67
2019-04-11 00:00:00 5.5 6 Nordeste 14 Norte 0 -- -- 62
2019-04-10 23:00:00 6.8 2 Este 9 Norte 0 -- -- 62
2019-04-10 22:00:00 7 5 Este 12 Este 0 -- -- 73
2019-04-10 21:00:00 8.9 9 Norte 15 Noroeste 0 -- -- 67
2019-04-10 20:00:00 10 8 Noroeste 11 Oeste 0 -- -- 63
2019-04-10 19:00:00 10.6 5 Noroeste 17 Oeste 0 -- -- 57
2019-04-10 18:00:00 11.3 10 Oeste 23 Oeste 0 -- -- 52
2019-04-10 17:00:00 12.3 8 Sudeste 17 Sur 0 -- -- 64
2019-04-10 16:00:00 11.8 8 Sudoeste 21 Sudoeste 0.2 -- -- 62
2019-04-10 15:00:00 11.6 9 Sur 21 Sur 0 -- -- 61
2019-04-10 14:00:00 12.9 6 Este 21 Sudoeste 0 -- -- 46
2019-04-10 13:00:00 13.9 13 Oeste 21 Oeste 0 -- -- 42
2019-04-10 12:00:00 12.4 7 Sudoeste 14 Sudoeste 0 -- -- 53
2019-04-10 11:00:00 10.6 6 Oeste 11 Oeste 0 -- -- 67
2019-04-10 10:00:00 8.5 5 Oeste 10 Sudoeste 0 -- -- 76
2019-04-10 09:00:00 6.8 5 Oeste 9 Oeste 0 -- -- 83
2019-04-10 08:00:00 4.8 5 Norte 12 Norte 0 -- -- 91
2019-04-10 07:00:00 3.5 7 Norte 10 Norte 0 -- -- 90
2019-04-10 06:00:00 2.3 9 Norte 14 Norte 0 -- -- 92
2019-04-10 05:00:00 2.6 6 Norte 11 Norte 0 -- -- 91
2019-04-10 04:00:00 3.6 7 Noroeste 13 Norte 0 -- -- 88
2019-04-10 03:00:00 3.9 10 Norte 13 Norte 0 -- -- 89
2019-04-10 02:00:00 3.8 8 Norte 13 Norte 0 -- -- 90
2019-04-10 01:00:00 5.4 0 Calma 13 Este 0 -- -- 88
2019-04-10 00:00:00 5.9 9 Este 27 Este 0 -- -- 86
2019-04-09 23:00:00 6.4 16 Este 30 Este 0.4 -- -- 85
2019-04-09 22:00:00 7.1 24 Este 35 Este 0 -- -- 79
2019-04-09 21:00:00 8.7 9 Este 21 Nordeste 0 -- -- 66
2019-04-09 20:00:00 10.1 16 Nordeste 40 Este 0 -- -- 59
2019-04-09 19:00:00 11.1 29 Este 43 Este 0 -- -- 55
2019-04-09 18:00:00 15.1 16 Oeste 40 Oeste 0 -- -- 44
2019-04-09 17:00:00 14.7 21 Oeste 46 Sudoeste 0 -- -- 47
2019-04-09 16:00:00 14.9 23 Sudoeste 40 Sudoeste 0 -- -- 44
2019-04-09 15:00:00 14 24 Oeste 38 Sudoeste 0 -- -- 44
2019-04-09 14:00:00 13.3 18 Oeste 35 Oeste 0 -- -- 49
2019-04-09 13:00:00 12.8 16 Oeste 29 Sudoeste 0 -- -- 55
2019-04-09 12:00:00 11.5 15 Oeste 28 Oeste 0 -- -- 62
2019-04-09 11:00:00 10 17 Oeste 26 Oeste 0 -- -- 69
2019-04-09 10:00:00 8.5 13 Oeste 22 Oeste 0 -- -- 78
2019-04-09 09:00:00 6.5 8 Noroeste 13 Noroeste 0 -- -- 86
2019-04-09 08:00:00 6.4 8 Noroeste 22 Oeste 0 -- -- 83
2019-04-09 07:00:00 7.1 14 Noroeste 24 Oeste 0 -- -- 81
2019-04-09 06:00:00 6.9 12 Noroeste 19 Oeste 0 -- -- 83
2019-04-09 05:00:00 6.4 14 Noroeste 21 Noroeste 0 -- -- 88
2019-04-09 04:00:00 6.5 6 Norte 11 Norte 0 -- -- 88
2019-04-09 03:00:00 6.9 8 Norte 10 Norte 0 -- -- 84
2019-04-09 02:00:00 8 3 Sudeste 5 Oeste 0 -- -- 78
2019-04-09 01:00:00 8.5 5 Noroeste 16 Noroeste 0 -- -- 78
2019-04-09 00:00:00 9 14 Noroeste 17 Noroeste 0 -- -- 71
2019-04-08 23:00:00 8.3 5 Norte 13 Noroeste 0 -- -- 71
2019-04-08 22:00:00 9.5 10 Noroeste 20 Oeste 0 -- -- 65
2019-04-08 21:00:00 11.6 11 Oeste 24 Sudoeste 0 -- -- 60
2019-04-08 20:00:00 13.6 9 Sudoeste 17 Oeste 0 -- -- 60
2019-04-08 19:00:00 14.5 9 Oeste 23 Oeste 0 -- -- 57
2019-04-08 18:00:00 14.4 13 Noroeste 21 Noroeste 0 -- -- 53
2019-04-08 17:00:00 14.1 13 Noroeste 24 Oeste 0 -- -- 59
2019-04-08 16:00:00 12.6 14 Oeste 30 Oeste 0 -- -- 67
2019-04-08 15:00:00 12.8 16 Oeste 26 Oeste 0 -- -- 62
2019-04-08 14:00:00 12 13 Oeste 23 Oeste 0 -- -- 62
2019-04-08 13:00:00 11.5 11 Oeste 22 Noroeste 0 -- -- 62
2019-04-08 12:00:00 10.7 12 Oeste 21 Oeste 0 -- -- 62
2019-04-08 11:00:00 9.2 9 Oeste 15 Noroeste 0 -- -- 66
2019-04-08 10:00:00 7.3 4 Oeste 8 Sudoeste 0 -- -- 75
2019-04-08 09:00:00 5.8 4 Sudoeste 7 Norte 0 -- -- 87
2019-04-08 08:00:00 4.3 6 Norte 9 Norte 0 -- -- 90
2019-04-08 07:00:00 3.9 3 Sudoeste 8 Norte 0 -- -- 89
2019-04-08 06:00:00 3.5 4 Norte 12 Norte 0 -- -- 90
2019-04-08 05:00:00 2.3 8 Norte 10 Norte 0 -- -- 92
2019-04-08 04:00:00 2 7 Norte 10 Norte 0 -- -- 91
2019-04-08 03:00:00 3.1 4 Norte 10 Norte 0 -- -- 89
2019-04-08 02:00:00 3.1 4 Norte 11 Norte 0 -- -- 89
2019-04-08 01:00:00 2.7 9 Norte 12 Norte 0 -- -- 89
2019-04-08 00:00:00 3.3 8 Norte 12 Norte 0 -- -- 88
2019-04-07 23:00:00 5 3 Norte 14 Noroeste 0 -- -- 82
2019-04-07 22:00:00 5.8 8 Noroeste 13 Noroeste 0 -- -- 80
2019-04-07 21:00:00 8.8 5 Oeste 11 Oeste 0 -- -- 66
2019-04-07 20:00:00 9.6 5 Oeste 12 Oeste 0 -- -- 67
2019-04-07 19:00:00 10.2 9 Sur 19 Sur 0 -- -- 59
2019-04-07 18:00:00 11.8 10 Sudeste 17 Norte 0 -- -- 57
2019-04-07 17:00:00 12.1 12 Norte 31 Oeste 0 -- -- 53
2019-04-07 16:00:00 13.2 17 Oeste 30 Sudoeste 0 -- -- 38
2019-04-07 15:00:00 12.2 13 Oeste 27 Oeste 0 -- -- 49
2019-04-07 14:00:00 10.9 14 Noroeste 26 Oeste 0 -- -- 55
2019-04-07 13:00:00 9.2 13 Oeste 25 Oeste 0 -- -- 68
2019-04-07 12:00:00 8 10 Oeste 24 Oeste 0 -- -- 77
2019-04-07 11:00:00 6.3 12 Noroeste 20 Noroeste 0 -- -- 85
2019-04-07 10:00:00 4.4 9 Noroeste 17 Noroeste 0 -- -- 96
2019-04-07 09:00:00 2.9 6 Noroeste 13 Norte 0 -- -- 99
2019-04-07 08:00:00 1.8 6 Noroeste 16 Oeste 0 -- -- 98
2019-04-07 07:00:00 1.3 8 Oeste 14 Noroeste 0 -- -- 98
2019-04-07 06:00:00 2.2 9 Noroeste 12 Noroeste 0 -- -- 97
2019-04-07 05:00:00 2.4 8 Noroeste 11 Noroeste 0 -- -- 97
2019-04-07 04:00:00 2.9 3 Este 13 Noroeste 0 -- -- 96
2019-04-07 03:00:00 3.1 10 Noroeste 15 Este 0 -- -- 95
2019-04-07 02:00:00 3.4 8 Este 12 Este 0 -- -- 94
2019-04-07 01:00:00 3.4 3 Norte 12 Este 0 -- -- 94
2019-04-07 00:00:00 3 12 Este 20 Nordeste 0.2 -- -- 94
2019-04-06 23:00:00 3.4 12 Norte 17 Noroeste 1.8 -- -- 93
2019-04-06 22:00:00 3.7 14 Nordeste 30 Este 0 -- -- 92
2019-04-06 21:00:00 3.9 14 Este 22 Nordeste 0 -- -- 93
2019-04-06 20:00:00 5 7 Este 19 Norte 0.2 -- -- 90
2019-04-06 19:00:00 5.5 10 Norte 27 Oeste 1.4 -- -- 87
2019-04-06 18:00:00 6.7 11 Noroeste 21 Norte 0.6 -- -- 80
2019-04-06 17:00:00 8.9 5 Nordeste 18 Oeste 0 -- -- 62
2019-04-06 16:00:00 8.3 10 Sudoeste 21 Oeste 0 -- -- 66
2019-04-06 15:00:00 8 7 Oeste 17 Oeste 0 -- -- 70
2019-04-06 14:00:00 6.5 9 Oeste 20 Oeste 0 -- -- 78
2019-04-06 13:00:00 5.5 11 Oeste 20 Noroeste 0 -- -- 82
2019-04-06 12:00:00 4.9 6 Oeste 14 Oeste 0 -- -- 91
2019-04-06 11:00:00 3.8 10 Sudoeste 17 Oeste 0.2 -- -- 95
2019-04-06 10:00:00 2.9 6 Noroeste 15 Oeste 1.2 -- -- 97
2019-04-06 09:00:00 2.4 13 Oeste 22 Oeste 2 -- -- 96
2019-04-06 08:00:00 2.5 12 Oeste 30 Oeste 0.4 -- -- 97
2019-04-06 07:00:00 2.8 15 Oeste 24 Oeste 0.2 -- -- 97
2019-04-06 06:00:00 2.9 9 Oeste 15 Oeste 0.2 -- -- 97
2019-04-06 05:00:00 2.6 4 Sudoeste 9 Sudeste 0 -- -- 96
2019-04-06 04:00:00 2.3 4 Sur 17 Norte 0.4 -- -- 95
2019-04-06 03:00:00 2.8 13 Noroeste 27 Oeste 4.8 -- -- 92
2019-04-06 02:00:00 5.1 4 Sudeste 12 Este 3 -- -- 96
2019-04-06 01:00:00 5.5 5 Sudeste 10 Sudeste 0.6 -- -- 96
2019-04-06 00:00:00 5.5 6 Sur 12 Este 0.2 -- -- 96
2019-04-05 23:00:00 5.4 5 Este 20 Sudeste 0.4 -- -- 96
2019-04-05 22:00:00 5.3 15 Este 26 Este 0.2 -- -- 96
2019-04-05 21:00:00 5.5 9 Sudeste 28 Sudeste 3.6 -- -- 95
2019-04-05 20:00:00 6.4 4 Sudoeste 16 Sudoeste 4.2 -- -- 89
2019-04-05 19:00:00 7.9 6 Sur 30 Sudeste 0.8 -- -- 82
2019-04-05 18:00:00 9.6 13 Este 21 Este 0 -- -- 65
2019-04-05 17:00:00 9.5 11 Este 21 Este 0 -- -- 67
2019-04-05 16:00:00 10 6 Este 23 Este 0 -- -- 64
2019-04-05 15:00:00 10.3 13 Este 26 Este 0 -- -- 65
2019-04-05 14:00:00 7.1 10 Este 20 Este 0 -- -- 78
2019-04-05 13:00:00 6.6 17 Este 33 Este 0 -- -- 78
2019-04-05 12:00:00 5.7 21 Este 32 Este 0.2 -- -- 80
2019-04-05 11:00:00 3.7 15 Este 23 Este 0.8 -- -- 89
2019-04-05 10:00:00 4.1 6 Norte 9 Nordeste 0.4 -- -- 84
2019-04-05 09:00:00 4.9 6 Nordeste 13 Nordeste 0 -- -- 64
2019-04-05 08:00:00 4.7 4 Sudeste 23 Este 0 -- -- 54
2019-04-05 07:00:00 4.8 12 Este 20 Este 0 -- -- 52
2019-04-05 06:00:00 4.4 5 Este 13 Nordeste 0 -- -- 53
2019-04-05 05:00:00 3.5 6 Este 10 Este 0 -- -- 58
2019-04-05 04:00:00 4 8 Este 22 Nordeste 0 -- -- 55
2019-04-05 03:00:00 3.8 10 Nordeste 14 Este 0 -- -- 55
2019-04-05 02:00:00 3.5 7 Este 13 Este 0 -- -- 54
2019-04-05 01:00:00 2.1 4 Norte 10 Este 0 -- -- 60
2019-04-05 00:00:00 2.7 11 Este 17 Este 0 -- -- 56
2019-04-04 23:00:00 2.4 6 Nordeste 20 Norte 0 -- -- 57
2019-04-04 22:00:00 2.2 12 Norte 14 Norte 0 -- -- 58
2019-04-04 21:00:00 5.6 2 Noroeste 14 Oeste 0 -- -- 50
2019-04-04 20:00:00 8.4 10 Oeste 24 Sudoeste 0 -- -- 42
2019-04-04 19:00:00 10.3 15 Oeste 27 Oeste 0 -- -- 38
2019-04-04 18:00:00 10.9 14 Oeste 32 Oeste 0 -- -- 38
2019-04-04 17:00:00 10.9 13 Oeste 31 Oeste 0 -- -- 34
2019-04-04 16:00:00 10.2 14 Oeste 30 Oeste 0 -- -- 38
2019-04-04 15:00:00 9.7 15 Oeste 27 Oeste 0 -- -- 38
2019-04-04 14:00:00 9.2 14 Oeste 25 Noroeste 0 -- -- 39
2019-04-04 13:00:00 7.8 12 Noroeste 24 Oeste 0 -- -- 43
2019-04-04 12:00:00 6 11 Oeste 27 Oeste 0 -- -- 52
2019-04-04 11:00:00 4.3 14 Oeste 23 Oeste 0 -- -- 58
2019-04-04 10:00:00 2.6 12 Oeste 25 Oeste 0 -- -- 67
2019-04-04 09:00:00 0.8 10 Noroeste 16 Noroeste 0 -- -- 72
2019-04-04 08:00:00 -1 10 Noroeste 14 Oeste 0 -- -- 79
2019-04-04 07:00:00 -1.4 8 Noroeste 17 Noroeste 0 -- -- 78
2019-04-04 06:00:00 -1.2 5 Oeste 15 Noroeste 0 -- -- 77
2019-04-04 05:00:00 -0.7 10 Norte 22 Noroeste 0 -- -- 73
2019-04-04 04:00:00 0.7 14 Noroeste 39 Noroeste 0 -- -- 67
2019-04-04 03:00:00 1.7 20 Noroeste 28 Noroeste 0 -- -- 67
2019-04-04 02:00:00 1.7 14 Noroeste 22 Noroeste 0 -- -- 65
2019-04-04 01:00:00 2.3 14 Noroeste 33 Oeste 0 -- -- 67
2019-04-04 00:00:00 3.9 23 Oeste 35 Oeste 0 -- -- 60
2019-04-03 23:00:00 4.6 19 Oeste 27 Oeste 0 -- -- 57
2019-04-03 22:00:00 5.8 15 Oeste 28 Oeste 0 -- -- 57
2019-04-03 21:00:00 6.6 20 Oeste 40 Oeste 0 -- -- 52
2019-04-03 20:00:00 7.5 12 Sudoeste 32 Sudoeste 0 -- -- 61
2019-04-03 19:00:00 8.6 18 Sudoeste 29 Sudoeste 0 -- -- 53
2019-04-03 18:00:00 9.1 14 Oeste 24 Sudoeste 0 -- -- 48
2019-04-03 17:00:00 8.6 11 Oeste 32 Oeste 0 -- -- 62
2019-04-03 16:00:00 8.8 12 Sudoeste 31 Oeste 0 -- -- 63
2019-04-03 15:00:00 8.9 15 Sudoeste 28 Sudoeste 0 -- -- 65
2019-04-03 14:00:00 8.9 13 Oeste 26 Sudoeste 0 -- -- 68
2019-04-03 13:00:00 9.5 17 Oeste 30 Sudoeste 0 -- -- 67
2019-04-03 12:00:00 9.1 10 Oeste 19 Oeste 0 -- -- 78
2019-04-03 11:00:00 9.2 12 Oeste 19 Oeste 0 -- -- 76
2019-04-03 10:00:00 8.1 4 Sudeste 12 Este 0 -- -- 85
2019-04-03 09:00:00 7.2 7 Este 17 Sur 0 -- -- 89
2019-04-03 08:00:00 7.4 13 Sur 20 Sudeste 0 -- -- 89
2019-04-03 07:00:00 7.6 5 Sur 18 Sur 0 -- -- 86
2019-04-03 06:00:00 7 4 Sudeste 9 Este 0.2 -- -- 86
2019-04-03 05:00:00 7.1 6 Este 12 Este 0 -- -- 84
2019-04-03 04:00:00 7.9 4 Este 7 Este 0 -- -- 79
2019-04-03 03:00:00 8.1 4 Este 11 Este 0 -- -- 73
2019-04-03 02:00:00 8 7 Este 10 Este 0 -- -- 75
2019-04-03 01:00:00 7.6 7 Norte 11 Norte 0 -- -- 75
2019-04-03 00:00:00 7.1 8 Norte 10 Norte 0 -- -- 76
2019-04-02 23:00:00 6.9 8 Norte 12 Norte 0 -- -- 76
2019-04-02 22:00:00 11.5 9 Oeste 22 Oeste 0 -- -- 55
2019-04-02 21:00:00 12.1 12 Oeste 28 Sudoeste 0 -- -- 58
2019-04-02 20:00:00 13.9 12 Oeste 24 Oeste 0 -- -- 55
2019-04-02 19:00:00 13.1 6 Este 9 Sudeste 0 -- -- 68
2019-04-02 18:00:00 11.9 3 Sudeste 41 Oeste 2 -- -- 77
2019-04-02 17:00:00 15.3 14 Oeste 28 Oeste 0 -- -- 48
2019-04-02 16:00:00 15 8 Oeste 25 Noroeste 0 -- -- 51
2019-04-02 15:00:00 15.5 13 Norte 35 Noroeste 0 -- -- 47
2019-04-02 14:00:00 15.9 18 Sudoeste 30 Oeste 0 -- -- 48
2019-04-02 13:00:00 14.7 10 Oeste 24 Oeste 0 -- -- 60
2019-04-02 12:00:00 13 10 Noroeste 19 Oeste 0 -- -- 66
2019-04-02 11:00:00 11.4 13 Oeste 18 Oeste 0 -- -- 77
2019-04-02 10:00:00 10 7 Oeste 14 Oeste 0 -- -- 83
2019-04-02 09:00:00 7.6 6 Noroeste 12 Noroeste 0 -- -- 93
2019-04-02 08:00:00 7.4 5 Norte 13 Noroeste 0 -- -- 90
2019-04-02 07:00:00 7.7 5 Noroeste 8 Noroeste 0 -- -- 90
2019-04-02 06:00:00 8 2 Norte 10 Noroeste 0 -- -- 89
2019-04-02 05:00:00 6.7 6 Norte 9 Norte 0 -- -- 91
2019-04-02 04:00:00 5.9 7 Norte 9 Norte 0 -- -- 89
2019-04-02 03:00:00 6.3 5 Norte 10 Norte 0 -- -- 88
2019-04-02 02:00:00 6.9 5 Norte 9 Norte 0 -- -- 85
2019-04-02 01:00:00 7.7 5 Norte 9 Norte 0 -- -- 83
2019-04-02 00:00:00 7.3 3 Norte 10 Norte 0 -- -- 83
2019-04-01 23:00:00 7.5 6 Norte 9 Norte 0 -- -- 81
2019-04-01 22:00:00 9 6 Norte 9 Noroeste 0 -- -- 78
2019-04-01 21:00:00 10.5 8 Noroeste 15 Noroeste 0 -- -- 74
2019-04-01 20:00:00 11.8 10 Noroeste 16 Noroeste 0 -- -- 68
2019-04-01 19:00:00 13 10 Noroeste 16 Noroeste 0 -- -- 62
2019-04-01 18:00:00 13.7 9 Sudoeste 16 Sudoeste 0 -- -- 57
2019-04-01 17:00:00 13.4 12 Sudoeste 23 Oeste 0 -- -- 58
2019-04-01 16:00:00 14 14 Oeste 23 Oeste 0 -- -- 61
2019-04-01 15:00:00 14.2 12 Oeste 22 Oeste 0 -- -- 60
2019-04-01 14:00:00 13.7 6 Sudoeste 17 Oeste 0 -- -- 64
2019-04-01 13:00:00 12.1 10 Oeste 14 Oeste 0 -- -- 72
2019-04-01 12:00:00 10.9 7 Noroeste 11 Noroeste 0 -- -- 74
2019-04-01 11:00:00 9.6 6 Oeste 10 Noroeste 0 -- -- 82
2019-04-01 10:00:00 7.9 5 Oeste 11 Noroeste 0 -- -- 90
2019-04-01 09:00:00 7 9 Noroeste 12 Oeste 0.4 -- -- 92
2019-04-01 08:00:00 6.7 6 Noroeste 11 Noroeste 0 -- -- 85
2019-04-01 07:00:00 7.1 5 Noroeste 9 Oeste 0 -- -- 82
2019-04-01 06:00:00 6.8 5 Noroeste 9 Noroeste 0 -- -- 80
2019-04-01 05:00:00 7.1 7 Norte 10 Norte 0 -- -- 78
2019-04-01 04:00:00 7.2 6 Norte 9 Norte 0 -- -- 82
2019-04-01 03:00:00 7.3 0 Calma 5 Norte 0 -- -- 84
2019-04-01 02:00:00 7.8 0 Calma 8 Este 0 -- -- 84
2019-04-01 01:00:00 7.7 3 Nordeste 8 Norte 0 -- -- 83
2019-04-01 00:00:00 7.5 0 Calma 6 Norte 0 -- -- 83
2019-03-31 23:00:00 8 4 Noroeste 10 Oeste 0 -- -- 82
2019-03-31 22:00:00 8.3 5 Noroeste 14 Noroeste 0 -- -- 82
2019-03-31 21:00:00 8.9 9 Oeste 13 Oeste 0 -- -- 80
2019-03-31 20:00:00 10 7 Noroeste 13 Sudoeste 0 -- -- 75
2019-03-31 19:00:00 11.5 9 Sur 16 Sudeste 0 -- -- 67
2019-03-31 18:00:00 12 11 Sur 18 Sudeste 0 -- -- 61
2019-03-31 17:00:00 13.2 7 Sudeste 17 Sudeste 0 -- -- 54
2019-03-31 16:00:00 12.7 8 Sur 14 Este 0 -- -- 49
2019-03-31 15:00:00 12.5 7 Sudeste 17 Sur 0 -- -- 51
2019-03-31 14:00:00 11.7 9 Sur 18 Sudeste 0 -- -- 55
2019-03-31 13:00:00 10.8 6 Sur 13 Sudeste 0 -- -- 60
2019-03-31 12:00:00 9.2 6 Sur 12 Sur 0 -- -- 68
2019-03-31 11:00:00 8.3 7 Este 18 Sur 0 -- -- 75
2019-03-31 10:00:00 7.3 6 Sudeste 10 Este 0 -- -- 76
2019-03-31 09:00:00 3.9 7 Este 14 Sudeste 0 -- -- 86
2019-03-31 08:00:00 5.2 8 Este 13 Nordeste 0 -- -- 76
2019-03-31 07:00:00 3.9 10 Nordeste 18 Norte 0 -- -- 85
2019-03-31 06:00:00 2 8 Norte 12 Norte 0 -- -- 91
2019-03-31 05:00:00 2 10 Norte 16 Norte 0 -- -- 92
2019-03-31 03:00:00 2.7 7 Norte 10 Norte 0 -- -- 91
2019-03-31 01:00:00 2.8 6 Norte 12 Norte 0 -- -- 90
2019-03-31 00:00:00 3.8 6 Norte 10 Sudeste 0 -- -- 88
2019-03-30 23:00:00 6.2 6 Este 12 Este 0 -- -- 83
2019-03-30 22:00:00 7.4 6 Este 13 Sudeste 0 -- -- 75
2019-03-30 21:00:00 9.1 8 Sudeste 15 Sudeste 0 -- -- 68
2019-03-30 20:00:00 11.1 9 Sudeste 16 Sur 0 -- -- 55
2019-03-30 19:00:00 12.9 9 Sur 19 Sudeste 0 -- -- 46
2019-03-30 18:00:00 14.1 11 Sur 20 Sudeste 0 -- -- 41
2019-03-30 17:00:00 14.6 11 Sur 24 Este 0 -- -- 42
2019-03-30 16:00:00 15 12 Sur 21 Sur 0 -- -- 43
2019-03-30 15:00:00 14.5 9 Sudeste 15 Este 0 -- -- 44
2019-03-30 14:00:00 14.2 9 Oeste 36 Sudeste 0 -- -- 47
2019-03-30 13:00:00 14.2 12 Sudeste 21 Sur 0 -- -- 44
2019-03-30 12:00:00 13.2 6 Sudeste 14 Sudeste 0 -- -- 45
2019-03-30 11:00:00 12.4 6 Este 16 Este 0 -- -- 50
2019-03-30 10:00:00 9.6 8 Sudeste 14 Este 0 -- -- 62
2019-03-30 09:00:00 7.1 6 Sudeste 10 Sur 0 -- -- 69
2019-03-30 08:00:00 3.5 2 Nordeste 8 Norte 0 -- -- 83
2019-03-30 07:00:00 0.9 4 Noroeste 10 Norte 0 -- -- 88
2019-03-30 06:00:00 1.2 6 Norte 9 Norte 0 -- -- 86
2019-03-30 05:00:00 2.3 5 Norte 11 Norte 0 -- -- 84
2019-03-30 04:00:00 1.7 8 Norte 10 Norte 0 -- -- 84
2019-03-30 03:00:00 2.5 6 Noroeste 12 Norte 0 -- -- 82
2019-03-30 02:00:00 2.2 5 Norte 9 Nordeste 0 -- -- 82
2019-03-30 01:00:00 2.7 5 Norte 9 Norte 0 -- -- 80
2019-03-30 00:00:00 3.1 4 Norte 9 Norte 0 -- -- 79
2019-03-29 23:00:00 4.7 5 Norte 11 Este 0 -- -- 72
2019-03-29 22:00:00 7.3 4 Este 17 Sudeste 0 -- -- 63
2019-03-29 21:00:00 8.6 10 Sudeste 27 Sudeste 0 -- -- 59
2019-03-29 20:00:00 10.4 9 Sudeste 22 Sudeste 0 -- -- 53
2019-03-29 19:00:00 12.3 14 Sur 29 Sudeste 0 -- -- 46
2019-03-29 18:00:00 13.6 8 Sudeste 14 Sudeste 0 -- -- 41
2019-03-29 17:00:00 13.2 8 Sur 17 Sur 0 -- -- 42
2019-03-29 16:00:00 14 9 Sudeste 19 Este 0 -- -- 39
2019-03-29 15:00:00 14.2 8 Este 21 Este 0 -- -- 39
2019-03-29 14:00:00 13.6 8 Este 24 Sudeste 0 -- -- 42
2019-03-29 13:00:00 13.1 8 Sur 24 Este 0 -- -- 40
2019-03-29 12:00:00 14.1 7 Sudeste 20 Este 0 -- -- 40
2019-03-29 11:00:00 13.3 11 Sudeste 21 Sudeste 0 -- -- 44
2019-03-29 10:00:00 12.3 7 Este 13 Este 0 -- -- 47
2019-03-29 09:00:00 9.3 7 Este 12 Este 0 -- -- 58
2019-03-29 08:00:00 5.8 4 Sudeste 14 Nordeste 0 -- -- 70
2019-03-29 07:00:00 4.9 0 Calma 3 Sudeste 0 -- -- 69
2019-03-29 06:00:00 4.3 0 Calma 9 Norte 0 -- -- 73
2019-03-29 05:00:00 3.1 6 Norte 10 Norte 0 -- -- 77
2019-03-29 04:00:00 2.1 7 Norte 11 Norte 0 -- -- 77
2019-03-29 03:00:00 2.5 6 Norte 12 Norte 0 -- -- 75
2019-03-29 02:00:00 2.8 7 Norte 10 Norte 0 -- -- 75
2019-03-29 01:00:00 5.2 4 Sudeste 11 Este 0 -- -- 63
2019-03-29 00:00:00 6 8 Este 11 Este 0 -- -- 62
2019-03-28 23:00:00 6.3 7 Este 10 Este 0 -- -- 62
2019-03-28 22:00:00 7 8 Sudeste 15 Sudeste 0 -- -- 59
2019-03-28 21:00:00 6.4 7 Norte 10 Norte 0 -- -- 63
2019-03-28 20:00:00 9.7 0 Calma 14 Sudoeste 0 -- -- 53
2019-03-28 19:00:00 12.6 8 Sur 16 Sudoeste 0 -- -- 45
2019-03-28 18:00:00 13.8 12 Sudeste 18 Sur 0 -- -- 38
2019-03-28 17:00:00 14.9 8 Sur 21 Sur 0 -- -- 40
2019-03-28 16:00:00 14.9 10 Sudoeste 23 Sudoeste 0 -- -- 41
2019-03-28 15:00:00 14.8 13 Sur 26 Sur 0 -- -- 42
2019-03-28 14:00:00 14.9 12 Sur 24 Sur 0 -- -- 43
2019-03-28 13:00:00 14.6 7 Sur 22 Sudeste 0 -- -- 45
2019-03-28 12:00:00 14.6 13 Sudeste 25 Sudeste 0 -- -- 45
2019-03-28 11:00:00 13 8 Este 14 Este 0 -- -- 40
2019-03-28 10:00:00 10.4 9 Este 13 Sudeste 0 -- -- 52
2019-03-28 09:00:00 7.7 5 Sudeste 8 Sudeste 0 -- -- 58
2019-03-28 08:00:00 3.5 0 Calma 9 Norte 0 -- -- 75
2019-03-28 07:00:00 1.2 4 Norte 10 Norte 0 -- -- 82
2019-03-28 06:00:00 1.4 7 Norte 11 Norte 0 -- -- 79
2019-03-28 05:00:00 1.9 5 Norte 13 Norte 0 -- -- 74
2019-03-28 04:00:00 1.9 10 Norte 13 Norte 0 -- -- 73
2019-03-28 03:00:00 2.1 9 Norte 14 Norte 0 -- -- 70
2019-03-28 02:00:00 2.5 5 Norte 12 Norte 0 -- -- 68
2019-03-28 01:00:00 4.1 4 Este 10 Nordeste 0 -- -- 65
2019-03-28 00:00:00 4.3 6 Norte 11 Norte 0 -- -- 65
2019-03-27 23:00:00 5.6 4 Este 10 Norte 0 -- -- 61
2019-03-27 22:00:00 6.1 5 Nordeste 11 Norte 0 -- -- 59
2019-03-27 21:00:00 6.6 6 Norte 9 Noroeste 0 -- -- 60
2019-03-27 20:00:00 9.8 4 Norte 9 Sudoeste 0 -- -- 54
2019-03-27 19:00:00 13.9 8 Sudoeste 15 Sudoeste 0 -- -- 42
2019-03-27 18:00:00 15.7 8 Oeste 18 Noroeste 0 -- -- 38
2019-03-27 17:00:00 15.9 11 Oeste 21 Oeste 0 -- -- 38
2019-03-27 16:00:00 15.5 13 Oeste 24 Oeste 0 -- -- 37
2019-03-27 15:00:00 15.1 14 Oeste 26 Oeste 0 -- -- 37
2019-03-27 14:00:00 14.4 14 Oeste 23 Oeste 0 -- -- 37
2019-03-27 13:00:00 13.7 14 Oeste 24 Oeste 0 -- -- 37
2019-03-27 12:00:00 13.2 13 Oeste 20 Oeste 0 -- -- 36
2019-03-27 11:00:00 12.1 6 Oeste 12 Oeste 0 -- -- 44
2019-03-27 10:00:00 10 4 Sudoeste 9 Oeste 0 -- -- 55
2019-03-27 09:00:00 7 4 Sudeste 7 Este 0 -- -- 67
2019-03-27 08:00:00 2.7 3 Oeste 12 Norte 0 -- -- 83
2019-03-27 07:00:00 -0.1 9 Norte 12 Norte 0 -- -- 88
2019-03-27 06:00:00 0.5 9 Norte 14 Norte 0 -- -- 86
2019-03-27 05:00:00 -0.1 8 Norte 13 Norte 0 -- -- 87
2019-03-27 04:00:00 0.8 5 Norte 13 Norte 0 -- -- 84
2019-03-27 03:00:00 0.8 9 Norte 13 Norte 0 -- -- 83
2019-03-27 02:00:00 1.5 7 Norte 14 Norte 0 -- -- 78
2019-03-27 01:00:00 1.9 9 Norte 12 Norte 0 -- -- 75
2019-03-27 00:00:00 2.9 3 Nordeste 9 Norte 0 -- -- 66
2019-03-26 23:00:00 6 10 Este 15 Este 0 -- -- 62
2019-03-26 22:00:00 9 14 Este 27 Este 0 -- -- 19
2019-03-26 21:00:00 9.8 20 Nordeste 26 Nordeste 0 -- -- 17
2019-03-26 20:00:00 10.5 11 Este 19 Este 0 -- -- 17
2019-03-26 19:00:00 15.3 4 Sudeste 23 Este 0 -- -- 16
2019-03-26 18:00:00 16.8 10 Este 29 Este 0 -- -- 13
2019-03-26 17:00:00 17.5 6 Sudeste 20 Este 0 -- -- 18
2019-03-26 16:00:00 16.8 12 Sur 32 Sur 0 -- -- 27
2019-03-26 15:00:00 16.6 13 Oeste 24 Oeste 0 -- -- 25
2019-03-26 14:00:00 15.6 16 Oeste 25 Oeste 0 -- -- 26
2019-03-26 13:00:00 14.2 14 Oeste 25 Oeste 0 -- -- 27
2019-03-26 12:00:00 13.4 16 Oeste 25 Oeste 0 -- -- 29
2019-03-26 11:00:00 12.3 11 Oeste 17 Oeste 0 -- -- 21
2019-03-26 10:00:00 11.1 8 Oeste 16 Este 0 -- -- 29
2019-03-26 09:00:00 11.1 11 Este 21 Este 0 -- -- 22
2019-03-26 08:00:00 7.5 3 Norte 9 Este 0 -- -- 32
2019-03-26 07:00:00 6.4 7 Este 29 Este 0 -- -- 34
2019-03-26 06:00:00 6.2 20 Este 30 Este 0 -- -- 39
2019-03-26 05:00:00 5 13 Nordeste 19 Nordeste 0 -- -- 46
2019-03-26 04:00:00 5.3 4 Norte 21 Este 0 -- -- 48
2019-03-26 03:00:00 3.7 8 Norte 14 Nordeste 0 -- -- 51
2019-03-26 02:00:00 5.4 5 Nordeste 10 Nordeste 0 -- -- 48
2019-03-26 01:00:00 8.6 4 Nordeste 11 Nordeste 0 -- -- 38
2019-03-26 00:00:00 8.9 4 Este 13 Este 0 -- -- 39
2019-03-25 23:00:00 9.6 3 Nordeste 14 Este 0 -- -- 37
2019-03-25 22:00:00 10.1 10 Este 18 Norte 0 -- -- 37
2019-03-25 21:00:00 8 11 Norte 16 Nordeste 0 -- -- 59
2019-03-25 20:00:00 10.3 7 Norte 15 Oeste 0 -- -- 55
2019-03-25 19:00:00 14.9 10 Oeste 23 Oeste 0 -- -- 45
2019-03-25 18:00:00 16.5 17 Oeste 24 Sudoeste 0 -- -- 39
2019-03-25 17:00:00 17.9 13 Oeste 25 Oeste 0 -- -- 38
2019-03-25 16:00:00 17.9 13 Sudoeste 31 Oeste 0 -- -- 39
2019-03-25 15:00:00 17.6 13 Oeste 27 Sudoeste 0 -- -- 43
2019-03-25 14:00:00 17 15 Oeste 28 Oeste 0 -- -- 42
2019-03-25 13:00:00 16.2 15 Oeste 26 Oeste 0 -- -- 45
2019-03-25 12:00:00 15.8 14 Oeste 20 Oeste 0 -- -- 43
2019-03-25 11:00:00 14.2 11 Oeste 18 Oeste 0 -- -- 44
2019-03-25 10:00:00 12.6 9 Noroeste 17 Oeste 0 -- -- 50
2019-03-25 09:00:00 10.6 8 Oeste 12 Oeste 0 -- -- 56
2019-03-25 08:00:00 6.8 3 Nordeste 12 Norte 0 -- -- 65
2019-03-25 07:00:00 5.2 11 Norte 16 Norte 0 -- -- 70
2019-03-25 06:00:00 5.3 10 Norte 13 Norte 0 -- -- 70
2019-03-25 05:00:00 6.2 6 Norte 16 Nordeste 0 -- -- 66
2019-03-25 04:00:00 7 11 Nordeste 13 Nordeste 0 -- -- 64
2019-03-25 03:00:00 7.2 7 Nordeste 12 Nordeste 0 -- -- 64
2019-03-25 02:00:00 8.4 5 Nordeste 10 Nordeste 0 -- -- 61
2019-03-25 01:00:00 7.3 4 Sudeste 9 Norte 0 -- -- 64
2019-03-25 00:00:00 8.3 0 Calma 13 Norte 0 -- -- 59